Flight Track Log - Related Links

Times and Time Zones

All times are in EDT time to prevent confusion due to time zone crossing. See the GJS3649 flight status page for this flight to view local times or setup timezone preferences in your user account.

Time Position Orientation Groundspeed Altitude Reporting Facility
EDT Latitude Longitude Course Direction KTS MPH feet Rate Location/Type
Sat 03:01:33 PM 41.9500 -72.7053 236° Southwest 150 173 900  Level Boston Center
Sat 03:02:04 PM 41.9686 -72.7278 318° Northwest 165 190 2,000 2,313 Climbing Boston Center
Sat 03:02:56 PM 42.0019 -72.7725 315° West 222 255 4,100 2,196 Climbing Boston Center
Sat 03:03:56 PM 41.9994 -72.8564 268° West 252 290 6,100 2,650 Climbing Boston Center
Sat 03:04:00 PM 41.9114 -73.0740 265° West  Level FlightAware Approximate
Sat 03:04:56 PM 41.9803 -72.9539 255° West 273 314 9,400  Level Boston Center
Sat 03:05:00 PM 41.9020 -73.2060 265° West  Level FlightAware Approximate
Sat 03:05:56 PM 41.9611 -73.0486 255° West 273 314 10,400  Level Boston Center
Sat 03:06:00 PM 41.8841 -73.3319 236° Southwest  Level FlightAware Approximate
Sat 03:06:56 PM 41.9417 -73.1433 255° West 288 331 12,000  Level Boston Center
Sat 03:07:56 PM 41.9036 -73.2631 247° West 308 354 14,400 2,200 Climbing Boston Center
Sat 03:08:56 PM 41.8608 -73.3711 242° Southwest 325 374 16,400 1,600 Climbing Boston Center
Sat 03:09:56 PM 41.8206 -73.4736 242° Southwest 342 394 17,600 1,337 Climbing Boston Center
Sat 03:11:51 PM 41.6925 -73.6631 228° Southwest 334 384 20,300 1,509 Climbing New York Center
Sat 03:12:51 PM 41.5969 -73.7447 213° Southwest 355 409 22,000 1,770 Climbing New York Center
Sat 03:13:53 PM 41.5139 -73.8158 213° Southwest 368 423 23,900 1,610 Climbing New York Center
Sat 03:14:54 PM 41.4225 -73.8836 209° Southwest 373 429 25,300 1,322 Climbing New York Center
Sat 03:15:51 PM 41.3397 -73.9489 211° Southwest 378 435 26,500 1,026 Climbing New York Center
Sat 03:16:51 PM 41.2439 -74.0217 210° Southwest 396 456 27,300 793 Climbing New York Center
Sat 03:17:52 PM 41.1500 -74.0997 212° Southwest 403 464 28,100 836 Climbing New York Center
Sat 03:18:53 PM 41.0775 -74.2336 234° Southwest 398 458 29,000 756 Climbing New York Center
Sat 03:19:51 PM 41.0131 -74.3653 237° Southwest 418 481 29,600 -200 Climbing New York Center
Sat 03:20:53 PM 40.9464 -74.4989 237° Southwest 430 495 28,600 -836 Descending New York Center
Sat 03:21:53 PM 40.8919 -74.6442 244° Southwest 436 502 27,900 -303 Descending New York Center
Sat 03:22:52 PM 40.8456 -74.7842 246° West 436 502 28,000 50 Climbing New York Center
Sat 03:23:52 PM 40.8008 -74.9322 248° West 436 502 28,000  Level New York Center
Sat 03:24:53 PM 40.7558 -75.0803 248° West 436 502 28,000  Level New York Center
Sat 03:25:52 PM 40.6906 -75.2131 237° Southwest 431 496 28,000  Level New York Center
Sat 03:26:53 PM 40.6231 -75.3453 236° Southwest 436 502 28,000 -756 Level New York Center
Sat 03:27:51 PM 40.5553 -75.4747 235° Southwest 441 507 26,500 -1,916 Descending New York Center
Sat 03:28:52 PM 40.4878 -75.6011 235° Southwest 441 507 24,200 -2,231 Descending New York Center
Sat 03:29:52 PM 40.4219 -75.7272 236° Southwest 435 501 22,000 -2,100 Descending New York Center
Sat 03:30:52 PM 40.3564 -75.8506 235° Southwest 424 488 20,000 -992 Descending New York Center
Sat 03:31:53 PM 40.2953 -75.9606 234° Southwest 419 482 20,000  Level New York Center
Sat 03:32:53 PM 40.2339 -76.0783 236° Southwest 412 474 20,000  Level New York Center
Sat 03:33:51 PM 40.1697 -76.2039 236° Southwest 405 466 20,000  Level New York Center
Sat 03:34:53 PM 40.1014 -76.3314 235° Southwest 411 473 20,000 -660 Level New York Center
Sat 03:37:11 PM 39.9667 -76.6167 238° Southwest 395 455 17,800 -1,125 Descending Potomac TRACON
Sat 03:38:05 PM 39.9167 -76.7167 237° Southwest 369 425 16,400 -1,421 Descending Potomac TRACON
Sat 03:39:05 PM 39.8667 -76.8333 241° Southwest 357 411 15,100 -730 Descending Potomac TRACON
Sat 03:40:00 PM 39.8167 -76.9333 237° Southwest 354 407 15,000 -522 Descending Potomac TRACON
Sat 03:41:00 PM 39.7667 -77.0333 237° Southwest 352 405 14,100 -1,250 Descending Potomac TRACON
Sat 03:42:00 PM 39.7333 -77.1333 247° West 312 359 12,500 -1,567 Descending Potomac TRACON
Sat 03:43:00 PM 39.6652 -77.2470 232° Southwest  Level FlightAware Approximate
Sat 03:44:00 PM 39.6500 -77.3000 232° Southwest 279 321 9,400  Level Potomac TRACON
Sat 03:45:00 PM 39.5833 -77.3667 218° Southwest 271 312 7,900 -1,500 Descending Potomac TRACON
Sat 03:46:00 PM 39.5167 -77.4000 201° Southwest 269 310 6,400 -1,500 Descending Potomac TRACON
Sat 03:47:00 PM 39.4500 -77.4333 201° Southwest 267 307 4,900 -1,190 Descending Potomac TRACON
Sat 03:48:01 PM 39.3667 -77.4333 180° South 257 296 4,000 -545 Descending Potomac TRACON
Sat 03:49:01 PM 39.3000 -77.4333 180° South 255 293 3,800 -500 Descending Potomac TRACON
Sat 03:50:01 PM 39.2333 -77.4333 180° South 230 265 3,000 -400 Descending Potomac TRACON
Sat 03:51:01 PM 39.1833 -77.4333 180° South 195 224 3,000  Level Potomac TRACON
Sat 03:51:55 PM 39.1333 -77.4333 180° South 197 227 3,000 -158 Level Potomac TRACON
Sat 03:52:55 PM 39.0833 -77.4333 180° South 179 206 2,700 -300 Descending Potomac TRACON

Login

Don't have an account? Register now (free) for customized features, flight alerts, and more!